createdAt,value
2023-11-27T00:01:26.427Z,99643.22
2023-11-27T00:03:53.926Z,99643.47
2023-11-27T00:06:21.280Z,99647.72
2023-11-27T00:08:48.592Z,99646.91
2023-11-27T00:11:16.324Z,99652.72
2023-11-27T00:13:43.724Z,99649.28
2023-11-27T00:16:11.594Z,99655.09
2023-11-27T00:18:39.561Z,99666.69
2023-11-27T00:21:07.117Z,99671.47
2023-11-27T00:23:34.425Z,99666.69
2023-11-27T00:26:01.791Z,99680.66
2023-11-27T00:28:29.153Z,99674.34
2023-11-27T00:30:57.789Z,99680.38
2023-11-27T00:33:25.648Z,99670.59
2023-11-27T00:35:52.956Z,99683.28
2023-11-27T00:38:20.699Z,99684.06
2023-11-27T00:40:48.060Z,99680.34
2023-11-27T00:43:15.442Z,99680.59
2023-11-27T00:45:42.979Z,99676.91
2023-11-27T00:48:10.419Z,99664.78
2023-11-27T00:50:38.319Z,99675.31
2023-11-27T00:53:05.659Z,99671.88
2023-11-27T00:55:33.025Z,99673.19
2023-11-27T00:58:00.393Z,99676.34
2023-11-27T01:00:27.689Z,99673.16
2023-11-27T01:02:55.193Z,99665.50
2023-11-27T01:05:22.720Z,99665.50
2023-11-27T01:07:50.084Z,99665.25
2023-11-27T01:10:18.636Z,99654.66
2023-11-27T01:12:48.115Z,99655.47
2023-11-27T01:15:18.243Z,99654.66
2023-11-27T01:17:45.551Z,99654.41
2023-11-27T01:20:12.983Z,99656.75
2023-11-27T01:22:40.348Z,99657.81
2023-11-27T01:25:08.165Z,99655.69
2023-11-27T01:27:36.504Z,99650.38
2023-11-27T01:30:05.014Z,99646.16
2023-11-27T01:32:32.343Z,99646.41
2023-11-27T01:35:00.094Z,99646.91
2023-11-27T01:37:27.467Z,99645.34
2023-11-27T01:39:54.769Z,99637.69
2023-11-27T01:42:22.101Z,99642.97
2023-11-27T01:44:49.404Z,99640.59
2023-11-27T01:47:16.893Z,99650.88
2023-11-27T01:49:45.801Z,99638.19
2023-11-27T01:52:13.745Z,99632.38
2023-11-27T01:54:42.022Z,99629.19
2023-11-27T01:57:09.427Z,99643.47
2023-11-27T01:59:37.048Z,99651.38
2023-11-27T02:02:05.778Z,99649.75
2023-11-27T02:04:33.602Z,99646.63
2023-11-27T02:07:01.119Z,99654.97
2023-11-27T02:09:29.043Z,99661.53
2023-11-27T02:11:56.368Z,99650.97
2023-11-27T02:14:23.733Z,99657.09
2023-11-27T02:16:51.236Z,99661.31
2023-11-27T02:19:19.398Z,99663.94
2023-11-27T02:21:46.909Z,99657.09
2023-11-27T02:24:14.266Z,99654.13
2023-11-27T02:26:41.681Z,99654.91
2023-11-27T02:29:09.151Z,99654.34
2023-11-27T02:31:38.752Z,99651.69
2023-11-27T02:34:06.318Z,99642.16
2023-11-27T02:36:37.932Z,99650.09
2023-11-27T02:39:07.899Z,99635.09
2023-11-27T02:41:38.476Z,99638.56
2023-11-27T02:44:06.371Z,99638.03
2023-11-27T02:46:35.026Z,99630.13
2023-11-27T02:49:02.979Z,99630.09
2023-11-27T02:51:30.374Z,99627.16
2023-11-27T02:53:58.335Z,99624.75
2023-11-27T02:56:25.782Z,99620.56
2023-11-27T02:58:53.093Z,99618.47
2023-11-27T03:01:20.436Z,99619.00
2023-11-27T03:03:48.025Z,99615.81
2023-11-27T03:06:15.381Z,99615.75
2023-11-27T03:08:42.672Z,99613.91
2023-11-27T03:11:11.902Z,99602.00
2023-11-27T03:13:40.373Z,99612.00
2023-11-27T03:16:08.071Z,99614.59
2023-11-27T03:18:35.533Z,99621.94
2023-11-27T03:21:02.940Z,99619.56
2023-11-27T03:23:30.260Z,99607.63
2023-11-27T03:25:58.501Z,99618.72
2023-11-27T03:28:26.015Z,99613.19
2023-11-27T03:30:54.322Z,99616.53
2023-11-27T03:33:22.393Z,99619.72
2023-11-27T03:35:51.509Z,99609.47
2023-11-27T03:38:18.793Z,99616.09
2023-11-27T03:40:46.203Z,99609.53
2023-11-27T03:43:13.626Z,99608.50
2023-11-27T03:45:40.986Z,99599.59
2023-11-27T03:48:08.357Z,99609.31
2023-11-27T03:50:35.674Z,99599.84
2023-11-27T03:53:03.139Z,99609.31
2023-11-27T03:55:30.424Z,99605.13
2023-11-27T03:57:57.774Z,99590.34
2023-11-27T04:00:25.258Z,99593.03
2023-11-27T04:02:52.787Z,99590.94
2023-11-27T04:05:20.369Z,99599.38
2023-11-27T04:07:48.648Z,99594.66
2023-11-27T04:10:17.813Z,99604.19
2023-11-27T04:12:45.284Z,99596.03
2023-11-27T04:15:13.331Z,99595.78
2023-11-27T04:17:40.718Z,99595.25
2023-11-27T04:20:08.541Z,99604.50
2023-11-27T04:22:35.850Z,99597.16
2023-11-27T04:25:03.457Z,99601.09
2023-11-27T04:27:32.004Z,99606.41
2023-11-27T04:30:00.931Z,99594.59
2023-11-27T04:32:28.395Z,99601.72
2023-11-27T04:34:55.679Z,99596.69
2023-11-27T04:37:23.041Z,99600.34
2023-11-27T04:39:52.724Z,99603.28
2023-11-27T04:42:20.159Z,99604.38
2023-11-27T04:44:47.616Z,99592.25
2023-11-27T04:47:15.101Z,99593.28
2023-11-27T04:49:43.793Z,99590.09
2023-11-27T04:52:11.881Z,99609.16
2023-11-27T04:54:39.558Z,99607.31
2023-11-27T04:57:07.504Z,99611.84
2023-11-27T04:59:35.282Z,99603.66
2023-11-27T05:02:02.747Z,99606.06
2023-11-27T05:04:31.533Z,99612.91
2023-11-27T05:06:58.904Z,99606.59
2023-11-27T05:09:27.658Z,99607.69
2023-11-27T05:11:55.287Z,99610.34
2023-11-27T05:14:22.907Z,99609.88
2023-11-27T05:16:50.327Z,99622.03
2023-11-27T05:19:17.701Z,99625.72
2023-11-27T05:21:45.046Z,99627.59
2023-11-27T05:24:12.375Z,99632.03
2023-11-27T05:26:39.700Z,99633.63
2023-11-27T05:29:09.116Z,99635.72
2023-11-27T05:31:36.534Z,99627.56
2023-11-27T05:34:04.012Z,99633.38
2023-11-27T05:36:31.307Z,99637.25
2023-11-27T05:38:58.843Z,99630.97
2023-11-27T05:41:26.470Z,99639.69
2023-11-27T05:43:53.752Z,99622.03
2023-11-27T05:46:21.234Z,99627.81
2023-11-27T05:48:48.701Z,99620.41
2023-11-27T05:51:19.292Z,99629.38
2023-11-27T05:53:46.675Z,99612.75
2023-11-27T05:56:13.985Z,99610.91
2023-11-27T05:58:41.337Z,99597.72
2023-11-27T06:01:08.855Z,99611.72
2023-11-27T06:03:38.278Z,99612.78
2023-11-27T06:06:09.199Z,99611.50
2023-11-27T06:08:36.589Z,99616.50
2023-11-27T06:11:06.978Z,99620.50
2023-11-27T06:13:34.406Z,99616.31
2023-11-27T06:16:01.802Z,99616.31
2023-11-27T06:18:29.247Z,99617.38
2023-11-27T06:20:56.576Z,99620.03
2023-11-27T06:23:24.542Z,99625.31
2023-11-27T06:25:51.851Z,99629.56
2023-11-27T06:28:19.230Z,99633.28
2023-11-27T06:30:46.556Z,99624.53
2023-11-27T06:33:13.954Z,99613.47
2023-11-27T06:35:41.284Z,99606.84
2023-11-27T06:38:08.596Z,99610.56
2023-11-27T06:40:45.305Z,99625.06
2023-11-27T06:43:16.248Z,99630.88
2023-11-27T06:45:43.807Z,99625.84
2023-11-27T06:48:11.228Z,99625.06
2023-11-27T06:50:38.563Z,99616.34
2023-11-27T06:53:05.895Z,99626.91
2023-11-27T06:55:33.272Z,99627.44
2023-11-27T06:58:03.206Z,99622.94
2023-11-27T07:00:32.880Z,99620.56
2023-11-27T07:03:00.318Z,99619.25
2023-11-27T07:05:27.727Z,99618.44
2023-11-27T07:07:55.042Z,99606.28
2023-11-27T07:10:22.481Z,99603.91
2023-11-27T07:12:49.765Z,99598.31
2023-11-27T07:15:17.209Z,99599.09
2023-11-27T07:17:46.358Z,99592.00
2023-11-27T07:20:19.044Z,99589.34
2023-11-27T07:22:48.932Z,99588.81
2023-11-27T07:25:16.936Z,99587.22
2023-11-27T07:27:50.699Z,99590.34
2023-11-27T07:30:18.440Z,99584.50
2023-11-27T07:32:46.848Z,99597.41
2023-11-27T07:35:14.581Z,99593.91
2023-11-27T07:37:42.732Z,99613.72
2023-11-27T07:40:12.309Z,99610.75
2023-11-27T07:42:42.385Z,99617.06
2023-11-27T07:45:09.994Z,99616.03
2023-11-27T07:47:37.345Z,99614.47
2023-11-27T07:50:07.688Z,99611.28
2023-11-27T07:52:35.311Z,99600.16
2023-11-27T07:55:05.782Z,99607.50
2023-11-27T07:57:36.154Z,99613.00
2023-11-27T08:00:04.113Z,99605.84
2023-11-27T08:02:40.372Z,99593.91
2023-11-27T08:05:10.250Z,99599.94
2023-11-27T08:07:38.115Z,99591.94
2023-11-27T08:10:06.121Z,99597.97
2023-11-27T08:12:33.436Z,99589.19
2023-11-27T08:15:00.910Z,99604.19
2023-11-27T08:17:28.422Z,99606.56
2023-11-27T08:19:55.980Z,99598.22
2023-11-27T08:22:23.396Z,99595.06
2023-11-27T08:24:50.870Z,99605.72
2023-11-27T08:27:21.960Z,99602.53
2023-11-27T08:29:49.286Z,99590.91
2023-11-27T08:32:16.649Z,99594.59
2023-11-27T08:34:43.951Z,99592.97
2023-11-27T08:37:14.890Z,99587.94
2023-11-27T08:39:42.322Z,99583.91
2023-11-27T08:42:09.717Z,99582.59
2023-11-27T08:44:37.584Z,99583.63
2023-11-27T08:47:06.497Z,99586.56
2023-11-27T08:49:34.122Z,99578.59
2023-11-27T08:52:04.432Z,99576.22
2023-11-27T08:54:34.007Z,99572.28
2023-11-27T08:57:01.463Z,99564.78
2023-11-27T08:59:29.034Z,99548.97
2023-11-27T09:01:57.459Z,99550.00
2023-11-27T09:04:25.042Z,99549.16
2023-11-27T09:06:52.404Z,99540.88
2023-11-27T09:09:19.766Z,99543.94
2023-11-27T09:11:47.378Z,99538.69
2023-11-27T09:14:14.724Z,99539.31
2023-11-27T09:16:42.137Z,99533.56
2023-11-27T09:19:12.040Z,99532.09
2023-11-27T09:21:39.923Z,99518.91
2023-11-27T09:24:07.674Z,99524.47
2023-11-27T09:26:35.081Z,99528.50
2023-11-27T09:29:02.408Z,99526.97
2023-11-27T09:31:30.444Z,99529.84
2023-11-27T09:33:58.602Z,99527.25
2023-11-27T09:36:27.846Z,99519.00
2023-11-27T09:38:55.606Z,99522.03
2023-11-27T09:41:23.100Z,99527.91
2023-11-27T09:43:50.513Z,99522.97
2023-11-27T09:46:19.630Z,99529.28
2023-11-27T09:48:48.566Z,99526.84
2023-11-27T09:51:17.381Z,99537.50
2023-11-27T09:53:49.032Z,99532.66
2023-11-27T09:56:16.543Z,99516.41
2023-11-27T09:58:44.191Z,99513.03
2023-11-27T10:01:14.961Z,99510.44
2023-11-27T10:03:43.525Z,99512.75
2023-11-27T10:06:12.968Z,99509.41
2023-11-27T10:08:41.237Z,99507.03
2023-11-27T10:11:08.609Z,99501.00
2023-11-27T10:13:46.669Z,99505.72
2023-11-27T10:16:24.642Z,99503.84
2023-11-27T10:18:53.425Z,99498.63
2023-11-27T10:21:22.834Z,99501.94
2023-11-27T10:23:51.796Z,99508.84
2023-11-27T10:26:22.261Z,99514.44
2023-11-27T10:28:51.855Z,99506.03
2023-11-27T10:31:19.530Z,99506.59
2023-11-27T10:33:47.121Z,99511.91
2023-11-27T10:36:14.460Z,99503.13
2023-11-27T10:38:42.467Z,99509.16
2023-11-27T10:41:09.837Z,99496.69
2023-11-27T10:43:37.407Z,99490.59
2023-11-27T10:46:08.875Z,99487.47
2023-11-27T10:48:43.914Z,99489.50
2023-11-27T10:51:13.830Z,99476.13
2023-11-27T10:53:44.126Z,99471.28
2023-11-27T10:56:13.501Z,99472.38
2023-11-27T10:58:40.914Z,99479.09
2023-11-27T11:01:09.790Z,99471.69
2023-11-27T11:03:38.470Z,99466.94
2023-11-27T11:06:08.106Z,99463.31
2023-11-27T11:08:35.606Z,99462.41
2023-11-27T11:11:07.350Z,99454.53
2023-11-27T11:13:35.135Z,99453.75
2023-11-27T11:16:26.384Z,99453.53
2023-11-27T11:18:58.624Z,99463.88
2023-11-27T11:21:45.398Z,99457.84
2023-11-27T11:24:35.253Z,99450.94
2023-11-27T11:27:22.768Z,99464.94
2023-11-27T11:29:52.897Z,99446.38
2023-11-27T11:32:20.387Z,99449.91
2023-11-27T11:34:52.256Z,99433.78
2023-11-27T11:37:19.840Z,99436.81
2023-11-27T11:39:55.210Z,99438.59
2023-11-27T11:42:34.341Z,99436.88
2023-11-27T11:45:29.315Z,99433.25
2023-11-27T11:48:08.149Z,99437.31
2023-11-27T11:50:44.571Z,99440.94
2023-11-27T11:53:11.946Z,99424.81
2023-11-27T11:55:40.964Z,99422.91
2023-11-27T11:58:20.655Z,99427.94
2023-11-27T12:00:48.578Z,99424.25
2023-11-27T12:03:17.606Z,99422.06
2023-11-27T12:05:51.829Z,99422.75
2023-11-27T12:08:25.213Z,99408.13
2023-11-27T12:10:53.344Z,99410.53
2023-11-27T12:13:35.576Z,99408.97
2023-11-27T12:16:14.874Z,99412.75
2023-11-27T12:18:44.859Z,99403.84
2023-11-27T12:21:13.431Z,99400.06
2023-11-27T12:23:41.737Z,99404.84
2023-11-27T12:26:11.048Z,99394.50
2023-11-27T12:28:38.457Z,99389.34
2023-11-27T12:31:06.086Z,99394.25
2023-11-27T12:33:34.438Z,99387.66
2023-11-27T12:36:06.171Z,99386.69
2023-11-27T12:38:35.966Z,99383.06
2023-11-27T12:41:10.048Z,99388.88
2023-11-27T12:43:37.901Z,99380.88
2023-11-27T12:46:14.738Z,99381.22
2023-11-27T12:48:45.560Z,99388.16
2023-11-27T12:51:15.042Z,99366.44
2023-11-27T12:53:50.797Z,99375.47
2023-11-27T12:56:25.868Z,99377.38
2023-11-27T12:58:53.546Z,99378.53
2023-11-27T13:01:27.169Z,99368.13
2023-11-27T13:03:54.869Z,99382.72
2023-11-27T13:06:28.865Z,99366.91
2023-11-27T13:08:56.438Z,99376.16
2023-11-27T13:11:27.203Z,99375.09
2023-11-27T13:13:56.781Z,99362.06
2023-11-27T13:16:24.508Z,99370.97
2023-11-27T13:18:51.858Z,99361.69
2023-11-27T13:21:22.927Z,99369.53
2023-11-27T13:23:51.932Z,99370.13
2023-11-27T13:26:27.984Z,99369.94
2023-11-27T13:28:56.218Z,99358.34
2023-11-27T13:31:29.503Z,99365.50
2023-11-27T13:33:58.352Z,99354.84
2023-11-27T13:36:29.522Z,99360.41
2023-11-27T13:39:08.456Z,99356.19
2023-11-27T13:41:36.374Z,99353.94
2023-11-27T13:44:09.297Z,99350.50
2023-11-27T13:46:36.677Z,99361.09
2023-11-27T13:49:08.441Z,99341.78
2023-11-27T13:51:35.814Z,99343.97
2023-11-27T13:54:03.195Z,99343.28
2023-11-27T13:56:31.809Z,99337.19
2023-11-27T13:58:59.244Z,99338.75
2023-11-27T14:01:28.969Z,99336.69
2023-11-27T14:04:16.434Z,99325.78
2023-11-27T14:06:46.861Z,99336.34
2023-11-27T14:09:52.528Z,99331.44
2023-11-27T14:12:27.725Z,99333.03
2023-11-27T14:15:09.502Z,99335.47
2023-11-27T14:17:39.151Z,99327.94
2023-11-27T14:20:25.879Z,99335.63
2023-11-27T14:23:16.393Z,99324.56
2023-11-27T14:26:02.203Z,99328.22
2023-11-27T14:28:52.302Z,99329.53
2023-11-27T14:31:20.113Z,99341.97
2023-11-27T14:33:52.050Z,99337.97
2023-11-27T14:36:19.658Z,99337.91
2023-11-27T14:38:47.978Z,99330.00
2023-11-27T14:41:16.692Z,99329.84
2023-11-27T14:43:44.999Z,99335.84
2023-11-27T14:46:12.917Z,99335.97
2023-11-27T14:48:41.966Z,99325.50
2023-11-27T14:51:12.661Z,99330.16
2023-11-27T14:53:49.635Z,99319.34
2023-11-27T14:56:18.137Z,99324.16
2023-11-27T14:58:45.572Z,99318.03
2023-11-27T15:01:15.879Z,99317.88
2023-11-27T15:03:46.630Z,99314.69
2023-11-27T15:06:14.624Z,99320.44
2023-11-27T15:08:41.883Z,99315.19
2023-11-27T15:11:11.911Z,99309.69
2023-11-27T15:13:45.222Z,99312.03
2023-11-27T15:16:16.905Z,99308.22
2023-11-27T15:18:44.910Z,99304.94
2023-11-27T15:21:12.308Z,99317.25
2023-11-27T15:23:41.017Z,99312.75
2023-11-27T15:26:10.626Z,99314.31
2023-11-27T15:28:37.961Z,99308.41
2023-11-27T15:31:05.923Z,99315.09
2023-11-27T15:33:35.737Z,99309.56
2023-11-27T15:36:09.320Z,99308.81
2023-11-27T15:38:36.997Z,99297.75
2023-11-27T15:41:11.283Z,99292.44
2023-11-27T15:43:41.134Z,99287.72
2023-11-27T15:46:10.262Z,99291.00
2023-11-27T15:48:38.192Z,99291.19
2023-11-27T15:51:09.378Z,99289.78
2023-11-27T15:53:36.944Z,99300.53
2023-11-27T15:56:09.835Z,99294.63
2023-11-27T15:58:37.822Z,99280.25
2023-11-27T16:01:05.472Z,99280.06
2023-11-27T16:03:33.199Z,99289.31
2023-11-27T16:06:03.299Z,99280.25
2023-11-27T16:08:31.092Z,99281.81
2023-11-27T16:10:58.428Z,99279.09
2023-11-27T16:13:27.953Z,99281.44
2023-11-27T16:15:56.312Z,99279.00
2023-11-27T16:18:31.193Z,99278.00
2023-11-27T16:20:59.753Z,99275.53
2023-11-27T16:23:28.401Z,99272.00
2023-11-27T16:25:56.302Z,99269.94
2023-11-27T16:28:23.662Z,99275.72
2023-11-27T16:30:51.171Z,99274.75
2023-11-27T16:33:18.777Z,99273.78
2023-11-27T16:35:46.708Z,99275.13
2023-11-27T16:38:14.003Z,99267.44
2023-11-27T16:40:41.741Z,99272.00
2023-11-27T16:43:11.419Z,99284.59
2023-11-27T16:45:39.219Z,99281.44
2023-11-27T16:48:08.093Z,99283.41
2023-11-27T16:50:36.359Z,99287.72
2023-11-27T16:53:04.425Z,99292.28
2023-11-27T16:55:32.229Z,99288.91
2023-11-27T16:58:09.250Z,99284.31
2023-11-27T17:00:37.777Z,99277.31
2023-11-27T17:03:07.668Z,99280.25
2023-11-27T17:05:35.732Z,99282.84
2023-11-27T17:08:11.374Z,99274.06
2023-11-27T17:10:41.742Z,99274.06
2023-11-27T17:13:12.649Z,99266.09
2023-11-27T17:15:46.969Z,99273.56
2023-11-27T17:18:15.128Z,99274.94
2023-11-27T17:20:43.585Z,99275.16
2023-11-27T17:23:14.005Z,99264.72
2023-11-27T17:25:41.550Z,99263.06
2023-11-27T17:28:12.810Z,99254.00
2023-11-27T17:30:43.058Z,99251.34
2023-11-27T17:33:11.041Z,99247.41
2023-11-27T17:35:39.790Z,99245.63
2023-11-27T17:38:07.929Z,99242.47
2023-11-27T17:40:35.711Z,99237.97
2023-11-27T17:43:03.066Z,99239.31
2023-11-27T17:45:30.379Z,99233.72
2023-11-27T17:47:57.743Z,99232.81
2023-11-27T17:50:25.302Z,99225.94
2023-11-27T17:52:56.534Z,99232.72
2023-11-27T17:55:34.061Z,99225.75
2023-11-27T17:58:06.583Z,99227.50
2023-11-27T18:00:33.958Z,99218.25
2023-11-27T18:03:01.403Z,99216.06
2023-11-27T18:05:29.621Z,99220.72
2023-11-27T18:07:58.032Z,99213.53
2023-11-27T18:10:25.732Z,99214.94
2023-11-27T18:12:54.343Z,99220.53
2023-11-27T18:15:22.782Z,99212.56
2023-11-27T18:17:51.183Z,99210.00
2023-11-27T18:20:19.559Z,99212.47
2023-11-27T18:22:50.589Z,99207.94
2023-11-27T18:25:23.490Z,99210.81
2023-11-27T18:27:52.031Z,99198.00
2023-11-27T18:30:20.508Z,99205.66
2023-11-27T18:32:48.322Z,99198.78
2023-11-27T18:35:17.708Z,99189.34
2023-11-27T18:37:47.145Z,99212.66
2023-11-27T18:40:16.283Z,99208.81
2023-11-27T18:42:43.966Z,99207.84
2023-11-27T18:45:12.420Z,99203.00
2023-11-27T18:47:41.565Z,99202.31
2023-11-27T18:50:10.303Z,99199.44
2023-11-27T18:52:38.123Z,99195.84
2023-11-27T18:55:07.169Z,99156.69
2023-11-27T18:57:36.656Z,99182.69
2023-11-27T19:00:09.785Z,99170.88
2023-11-27T19:02:37.739Z,99169.47
2023-11-27T19:05:06.911Z,99161.19
2023-11-27T19:07:34.291Z,99153.06
2023-11-27T19:10:01.823Z,99150.91
2023-11-27T19:12:29.158Z,99132.41
2023-11-27T19:14:56.921Z,99139.97
2023-11-27T19:17:24.312Z,99150.28
2023-11-27T19:19:51.703Z,99135.44
2023-11-27T19:22:19.065Z,99140.75
2023-11-27T19:24:47.099Z,99138.56
2023-11-27T19:27:14.479Z,99138.19
2023-11-27T19:29:41.888Z,99135.69
2023-11-27T19:32:09.241Z,99121.41
2023-11-27T19:34:38.393Z,99115.00
2023-11-27T19:37:08.629Z,99127.09
2023-11-27T19:39:37.487Z,99122.91
2023-11-27T19:42:05.455Z,99121.38
2023-11-27T19:44:33.082Z,99125.19
2023-11-27T19:47:00.864Z,99115.03
2023-11-27T19:49:28.798Z,99126.31
2023-11-27T19:51:56.283Z,99117.59
2023-11-27T19:54:25.145Z,99110.59
2023-11-27T19:56:53.063Z,99106.47
2023-11-27T19:59:22.329Z,99111.66
2023-11-27T20:01:50.810Z,99107.44
2023-11-27T20:04:19.446Z,99116.06
2023-11-27T20:06:46.984Z,99110.31
2023-11-27T20:09:16.714Z,99104.84
2023-11-27T20:11:44.382Z,99086.47
2023-11-27T20:14:12.393Z,99109.53
2023-11-27T20:16:43.681Z,99106.41
2023-11-27T20:19:11.344Z,99099.66
2023-11-27T20:21:41.858Z,99091.03
2023-11-27T20:24:09.336Z,99088.53
2023-11-27T20:26:37.217Z,99092.91
2023-11-27T20:29:06.505Z,99072.19
2023-11-27T20:31:38.600Z,99068.72
2023-11-27T20:34:09.710Z,99061.84
2023-11-27T20:36:41.540Z,99061.84
2023-11-27T20:39:11.098Z,99045.09
2023-11-27T20:41:41.197Z,99043.69
2023-11-27T20:44:09.859Z,99042.59
2023-11-27T20:46:39.022Z,99033.03
2023-11-27T20:49:06.528Z,99027.72
2023-11-27T20:51:34.032Z,99033.03
2023-11-27T20:54:01.620Z,99026.94
2023-11-27T20:56:29.250Z,99024.59
2023-11-27T20:58:57.265Z,99021.44
2023-11-27T21:01:24.957Z,99025.22
2023-11-27T21:03:53.865Z,99017.72
2023-11-27T21:06:26.304Z,99016.13
2023-11-27T21:08:54.238Z,99012.41
2023-11-27T21:11:24.806Z,99011.00
2023-11-27T21:13:53.851Z,99006.78
2023-11-27T21:16:21.832Z,99006.59
2023-11-27T21:18:49.882Z,98995.78
2023-11-27T21:21:17.351Z,99003.31
2023-11-27T21:23:44.753Z,98990.00
2023-11-27T21:26:15.348Z,98980.47
2023-11-27T21:28:43.147Z,98975.91
2023-11-27T21:31:11.147Z,98965.56
2023-11-27T21:33:38.708Z,98955.84
2023-11-27T21:36:06.368Z,98953.50
2023-11-27T21:38:33.688Z,98949.28
2023-11-27T21:41:01.131Z,98942.53
2023-11-27T21:43:28.904Z,98938.63
2023-11-27T21:45:56.416Z,98942.84
2023-11-27T21:48:23.786Z,98948.19
2023-11-27T21:50:51.307Z,98935.03
2023-11-27T21:53:18.809Z,98937.38
2023-11-27T21:55:46.606Z,98937.69
2023-11-27T21:58:14.022Z,98930.31
2023-11-27T22:00:41.347Z,98925.00
2023-11-27T22:03:09.064Z,98925.94
2023-11-27T22:05:36.667Z,98922.50
2023-11-27T22:08:04.240Z,98917.66
2023-11-27T22:10:33.931Z,98915.72
2023-11-27T22:13:02.538Z,98915.41
2023-11-27T22:15:29.858Z,98907.59
2023-11-27T22:17:57.247Z,98908.81
2023-11-27T22:20:24.633Z,98900.31
2023-11-27T22:22:52.037Z,98890.91
2023-11-27T22:25:19.721Z,98896.53
2023-11-27T22:27:47.093Z,98880.13
2023-11-27T22:30:14.551Z,98868.09
2023-11-27T22:32:42.009Z,98868.22
2023-11-27T22:35:09.603Z,98870.41
2023-11-27T22:37:39.426Z,98859.13
2023-11-27T22:40:08.116Z,98855.66
2023-11-27T22:42:37.024Z,98862.53
2023-11-27T22:45:04.825Z,98862.53
2023-11-27T22:47:32.216Z,98852.03
2023-11-27T22:49:59.536Z,98849.84
2023-11-27T22:52:32.013Z,98855.06
2023-11-27T22:54:59.537Z,98851.75
2023-11-27T22:57:27.080Z,98843.03
2023-11-27T22:59:54.358Z,98835.34
2023-11-27T23:02:21.905Z,98839.22
2023-11-27T23:04:49.778Z,98828.72
2023-11-27T23:07:17.162Z,98827.16
2023-11-27T23:09:44.433Z,98818.09
2023-11-27T23:12:11.793Z,98819.81
2023-11-27T23:14:40.522Z,98798.22
2023-11-27T23:17:08.227Z,98799.16
2023-11-27T23:19:35.791Z,98804.66
2023-11-27T23:22:03.180Z,98800.13
2023-11-27T23:24:30.489Z,98796.81
2023-11-27T23:26:57.927Z,98780.25
2023-11-27T23:29:25.220Z,98783.38
2023-11-27T23:31:55.673Z,98778.19
2023-11-27T23:34:25.743Z,98768.66
2023-11-27T23:36:53.105Z,98766.16
2023-11-27T23:39:20.440Z,98751.47
2023-11-27T23:41:48.144Z,98751.31
2023-11-27T23:44:15.459Z,98750.59
2023-11-27T23:46:44.084Z,98737.91
2023-11-27T23:49:11.485Z,98727.28
2023-11-27T23:51:38.757Z,98719.00
2023-11-27T23:54:06.030Z,98722.75
2023-11-27T23:56:37.429Z,98708.81
2023-11-27T23:59:04.760Z,98721.97
